In Rescue
 
Open Full Screen Window  High Contrast Mode
Wind Gusting 00 knots
03
December 04, 2021 5:01 PM CST
Weather Information
Wind Direction
  210 °
Wind Speed
  03 kt (3 mph)
Wind Gust
  00 kt (0 mph)
Altimeter
30.19 in
Visibility
10 SM
Temperature
-04° C
25° F
Dewpoint
-11° C
12° F
Humidity
59%
1hr Rain Fall
00.00 in.
24hr Rain Fall
00.00 in.
Sky Condition
Clear
VFR

METAR KBJI 042301Z AUTO 21003KT 10SM CLR M04/M11 A3019 RMK AO2 T10441111

FAA Disclaimer: The data displayed is for advisory purposes only and is not to be used for flight planning or operations.